Moscow, Idaho
Current Conditions -  °F | °C
As of 3:53 PM on Wednesday 28 Jan 2015 (Local Time) from KPUW Reporting Station
Clear Clear  
Wind Chill: 46°   Ceiling: Unl
Heat Index: 46°   Visibility: 10mi
Dew Point: 39°   Wind: 3mph
Humidity: 76%   Direction: 330°NNW
Pressure: 30.38"   Gusts: NA
Location:  46.73°N, 117°W
Report Text: KPUW 282353Z AUTO 33003KT 10SM CLR 08/04 A3038 RMK AO2 SLP300 T00780039 10094 20050 55001
Loading
Personal Weather Stations






























Interactive Weather Map New forecast layout! Learn more

10-Day Weather Forecast

Advertisements
Track Severe Weather on mobile